Time;durP1;ratioP1;P1;durP2;ratioP2;P2;SDS_P1;SDS_P2;PMS_P1;PMS_P2;Temp;Humidity;BMP_temperature;BMP_pressure;BME280_temperature;BME280_humidity;BME280_pressure;Samples;Min_cycle;Max_cycle;Signal;HPM_P1;HPM_P2
2022/02/02 00:00:16;;;;;;;5.70;3.60;;;;;;;;;;143735;605;46020;-80
2022/02/02 00:02:50;;;;;;;5.82;3.03;;;;;;;;;;143736;617;46012;-80
2022/02/02 00:05:29;;;;;;;4.57;2.97;;;;;;;;;;143733;575;47022;-79
2022/02/02 00:08:02;;;;;;;6.15;3.90;;;;;;;;;;143733;564;46020;-80
2022/02/02 00:13:39;;;;;;;9.40;5.20;;;;;;;;;;143735;582;46021;-81
2022/02/02 00:16:33;;;;;;;12.02;5.45;;;;;;;;;;143733;596;46022;-79
2022/02/02 00:19:07;;;;;;;8.38;6.57;;;;;;;;;;143733;589;46012;-80
2022/02/02 00:21:45;;;;;;;15.50;6.70;;;;;;;;;;143734;564;46021;-80
2022/02/02 00:24:38;;;;;;;8.80;6.53;;;;;;;;;;143735;638;46018;-79
2022/02/02 00:27:05;;;;;;;8.90;5.75;;;;;;;;;;143737;577;45022;-80
2022/02/02 00:29:40;;;;;;;7.87;6.07;;;;;;;;;;143734;619;46012;-81
2022/02/02 00:32:28;;;;;;;6.97;5.72;;;;;;;;;;143733;593;46020;-79
2022/02/02 00:34:55;;;;;;;9.15;5.82;;;;;;;;;;143733;571;46021;-79
2022/02/02 00:37:21;;;;;;;12.32;7.65;;;;;;;;;;143731;579;46023;-79
2022/02/02 00:39:48;;;;;;;7.75;5.65;;;;;;;;;;143731;631;46012;-79
2022/02/02 00:42:15;;;;;;;8.93;5.90;;;;;;;;;;143734;571;46021;-81
2022/02/02 00:44:46;;;;;;;8.07;6.15;;;;;;;;;;143736;579;46012;-79
2022/02/02 00:47:20;;;;;;;9.60;6.10;;;;;;;;;;143733;594;47022;-80
2022/02/02 00:49:48;;;;;;;7.87;6.47;;;;;;;;;;143734;585;46012;-80
2022/02/02 00:52:15;;;;;;;7.97;5.78;;;;;;;;;;143737;612;46014;-80
2022/02/02 00:54:42;;;;;;;8.25;5.55;;;;;;;;;;143737;573;46012;-79
2022/02/02 00:57:09;;;;;;;6.93;5.37;;;;;;;;;;143734;620;46910;-80
2022/02/02 00:59:36;;;;;;;8.13;6.32;;;;;;;;;;143733;570;46012;-79
2022/02/02 01:02:03;;;;;;;5.78;4.70;;;;;;;;;;143734;618;46020;-81
2022/02/02 01:04:30;;;;;;;6.22;4.45;;;;;;;;;;143735;627;46013;-81
2022/02/02 01:07:01;;;;;;;5.62;4.20;;;;;;;;;;143733;578;46023;-79
2022/02/02 01:09:35;;;;;;;5.87;3.83;;;;;;;;;;143734;606;46012;-80
2022/02/02 01:21:00;;;;;;;6.35;4.18;;;;;;;;;;143737;586;46012;-80
2022/02/02 01:28:47;;;;;;;11.55;7.20;;;;;;;;;;143736;616;46021;-81
2022/02/02 01:31:15;;;;;;;9.85;7.60;;;;;;;;;;143736;597;46012;-80
2022/02/02 01:33:42;;;;;;;10.68;8.38;;;;;;;;;;143737;695;46015;-80
2022/02/02 01:36:13;;;;;;;8.57;7.05;;;;;;;;;;143735;575;47021;-81
2022/02/02 01:38:42;;;;;;;4.57;3.25;;;;;;;;;;143734;564;46022;-79
2022/02/02 01:41:17;;;;;;;5.05;3.70;;;;;;;;;;143733;727;47012;-79
2022/02/02 01:43:51;;;;;;;5.93;4.15;;;;;;;;;;143735;604;46020;-79
2022/02/02 01:46:20;;;;;;;7.12;4.45;;;;;;;;;;143735;597;46012;-78
2022/02/02 02:00:15;;;;;;;6.07;2.45;;;;;;;;;;143736;573;46020;-80
2022/02/02 02:02:42;;;;;;;2.87;2.22;;;;;;;;;;143733;572;46012;-80
2022/02/02 02:05:12;;;;;;;6.28;3.28;;;;;;;;;;143737;580;46021;-80
2022/02/02 02:07:38;;;;;;;2.20;1.60;;;;;;;;;;143736;619;46018;-79
2022/02/02 02:10:06;;;;;;;2.75;1.83;;;;;;;;;;143733;580;47022;-79
2022/02/02 02:13:01;;;;;;;2.90;1.73;;;;;;;;;;143733;633;46013;-81
2022/02/02 02:15:30;;;;;;;2.75;1.77;;;;;;;;;;143738;760;46020;-80
2022/02/02 02:18:00;;;;;;;3.00;1.40;;;;;;;;;;143736;583;46020;-80
2022/02/02 02:20:28;;;;;;;3.87;1.50;;;;;;;;;;143734;567;47023;-80
2022/02/02 02:22:54;;;;;;;3.33;1.98;;;;;;;;;;143734;611;46012;-80
2022/02/02 02:25:26;;;;;;;3.10;1.33;;;;;;;;;;143735;570;46021;-79
2022/02/02 02:27:55;;;;;;;1.87;1.30;;;;;;;;;;143736;581;46012;-79
2022/02/02 02:39:16;;;;;;;2.53;1.75;;;;;;;;;;143735;580;46020;-79
2022/02/02 03:31:37;;;;;;;5.12;3.03;;;;;;;;;;143736;594;46020;-80
2022/02/02 03:53:55;;;;;;;5.15;3.60;;;;;;;;;;143734;593;49036;-80
2022/02/02 03:59:25;;;;;;;4.18;2.12;;;;;;;;;;143735;606;46024;-81
2022/02/02 04:02:10;;;;;;;4.18;2.20;;;;;;;;;;143734;673;46021;-81
2022/02/02 04:04:47;;;;;;;3.78;2.17;;;;;;;;;;143735;597;46021;-80
2022/02/02 04:07:23;;;;;;;3.65;2.53;;;;;;;;;;143737;586;46012;-79
2022/02/02 04:09:51;;;;;;;2.58;1.62;;;;;;;;;;143735;573;46022;-80
2022/02/02 04:59:39;;;;;;;2.62;1.87;;;;;;;;;;143738;601;46020;-80
2022/02/02 05:14:56;;;;;;;4.28;3.15;;;;;;;;;;143739;580;46020;-80
2022/02/02 05:40:50;;;;;;;4.72;3.58;;;;;;;;;;143736;573;46024;-81
2022/02/02 05:45:33;;;;;;;3.75;2.97;;;;;;;;;;143732;570;48020;-81
2022/02/02 05:53:46;;;;;;;7.18;5.05;;;;;;;;;;143735;633;45917;-81
2022/02/02 05:56:13;;;;;;;8.20;5.05;;;;;;;;;;143733;572;46021;-79
2022/02/02 05:58:40;;;;;;;7.72;5.47;;;;;;;;;;143735;608;46043;-80
2022/02/02 06:01:11;;;;;;;9.55;5.72;;;;;;;;;;143729;606;47014;-79
2022/02/02 06:03:53;;;;;;;8.73;6.10;;;;;;;;;;143733;602;46012;-81
2022/02/02 06:06:24;;;;;;;7.32;6.30;;;;;;;;;;143735;599;46020;-80
2022/02/02 06:08:52;;;;;;;6.53;5.85;;;;;;;;;;143733;632;46013;-80
2022/02/02 06:11:22;;;;;;;9.65;6.10;;;;;;;;;;143732;565;46051;-80
2022/02/02 06:13:53;;;;;;;8.75;6.85;;;;;;;;;;143731;617;46916;-79
2022/02/02 06:16:22;;;;;;;7.40;5.93;;;;;;;;;;143732;570;46020;-80
2022/02/02 06:18:54;;;;;;;6.25;5.07;;;;;;;;;;143735;574;47018;-80
2022/02/02 06:21:32;;;;;;;7.55;4.90;;;;;;;;;;143732;580;46022;-80
2022/02/02 06:24:22;;;;;;;6.37;4.68;;;;;;;;;;143733;641;46012;-80
2022/02/02 06:26:49;;;;;;;8.90;5.30;;;;;;;;;;143734;596;46021;-79
2022/02/02 06:29:16;;;;;;;7.95;5.62;;;;;;;;;;143732;659;47020;-79
2022/02/02 06:31:43;;;;;;;9.80;6.18;;;;;;;;;;143734;569;47022;-80
2022/02/02 06:34:19;;;;;;;5.18;4.68;;;;;;;;;;143733;575;46042;-80
2022/02/02 06:36:49;;;;;;;5.78;5.15;;;;;;;;;;143734;606;46020;-81
2022/02/02 06:39:15;;;;;;;5.35;4.85;;;;;;;;;;143733;597;46019;-80
2022/02/02 06:41:42;;;;;;;8.73;6.25;;;;;;;;;;143732;594;47023;-79
2022/02/02 06:44:09;;;;;;;7.12;5.47;;;;;;;;;;143732;619;46012;-80
2022/02/02 06:46:38;;;;;;;6.50;5.35;;;;;;;;;;143733;572;46021;-80
2022/02/02 06:49:05;;;;;;;7.45;5.80;;;;;;;;;;143735;622;46021;-79
2022/02/02 06:51:37;;;;;;;7.12;5.78;;;;;;;;;;143733;575;46022;-80
2022/02/02 06:54:26;;;;;;;8.15;6.12;;;;;;;;;;143732;590;46914;-78
2022/02/02 06:57:04;;;;;;;7.18;5.78;;;;;;;;;;143734;579;46021;-79
2022/02/02 07:03:03;;;;;;;7.18;5.97;;;;;;;;;;143733;612;46024;-79
2022/02/02 07:08:44;;;;;;;8.80;7.47;;;;;;;;;;143733;570;46022;-80
2022/02/02 07:11:28;;;;;;;7.53;6.72;;;;;;;;;;143736;588;46012;-80
2022/02/02 07:14:10;;;;;;;10.07;8.10;;;;;;;;;;143731;600;46022;-80
2022/02/02 07:16:48;;;;;;;12.63;6.97;;;;;;;;;;143732;571;46013;-80
2022/02/02 07:19:38;;;;;;;7.53;5.57;;;;;;;;;;143733;577;46020;-79
2022/02/02 07:22:25;;;;;;;6.15;4.15;;;;;;;;;;143734;612;46012;-80
2022/02/02 07:25:16;;;;;;;6.72;4.43;;;;;;;;;;143732;621;46051;-79
2022/02/02 07:27:47;;;;;;;4.55;3.92;;;;;;;;;;143730;565;46020;-80
2022/02/02 07:30:29;;;;;;;4.55;3.80;;;;;;;;;;143733;555;46020;-79
2022/02/02 07:33:12;;;;;;;6.22;5.18;;;;;;;;;;143735;643;46021;-80
2022/02/02 07:35:56;;;;;;;7.40;5.93;;;;;;;;;;143734;569;46022;-79
2022/02/02 07:38:26;;;;;;;7.20;5.53;;;;;;;;;;143731;569;46012;-78
2022/02/02 07:40:59;;;;;;;7.00;5.85;;;;;;;;;;143736;626;46021;-79
2022/02/02 07:43:30;;;;;;;6.50;5.53;;;;;;;;;;143734;588;46012;-79
2022/02/02 07:46:01;;;;;;;7.12;5.95;;;;;;;;;;143729;584;47020;-80
2022/02/02 07:48:36;;;;;;;9.90;5.87;;;;;;;;;;143733;604;46012;-80
2022/02/02 07:51:07;;;;;;;8.15;6.30;;;;;;;;;;143735;581;46020;-79
2022/02/02 07:53:45;;;;;;;11.20;8.02;;;;;;;;;;143736;589;46013;-79
2022/02/02 07:56:16;;;;;;;9.93;8.10;;;;;;;;;;143731;619;47910;-80
2022/02/02 07:58:47;;;;;;;10.80;8.57;;;;;;;;;;143733;584;46014;-78
2022/02/02 08:01:16;;;;;;;10.40;8.43;;;;;;;;;;143733;573;46021;-78
2022/02/02 08:03:51;;;;;;;9.70;8.40;;;;;;;;;;143733;586;46012;-78
2022/02/02 08:06:21;;;;;;;9.40;7.85;;;;;;;;;;143732;670;47022;-78
2022/02/02 08:08:51;;;;;;;10.50;8.38;;;;;;;;;;143733;594;46013;-79
2022/02/02 08:11:26;;;;;;;14.13;12.63;;;;;;;;;;143732;602;46020;-80
2022/02/02 08:13:57;;;;;;;12.80;11.48;;;;;;;;;;143735;575;46018;-79
2022/02/02 08:16:24;;;;;;;17.05;12.37;;;;;;;;;;143733;588;46022;-79
2022/02/02 08:18:52;;;;;;;15.23;12.00;;;;;;;;;;143731;565;46914;-79
2022/02/02 08:21:19;;;;;;;13.30;10.98;;;;;;;;;;143734;574;46020;-79
2022/02/02 08:23:46;;;;;;;12.48;11.02;;;;;;;;;;143736;588;46040;-79
2022/02/02 08:26:15;;;;;;;18.35;12.07;;;;;;;;;;143733;569;46020;-80
2022/02/02 08:28:46;;;;;;;13.35;11.18;;;;;;;;;;143730;573;46020;-79
2022/02/02 08:31:14;;;;;;;14.77;12.20;;;;;;;;;;143733;663;46021;-80
2022/02/02 08:33:45;;;;;;;25.77;13.95;;;;;;;;;;143733;614;47012;-78
2022/02/02 08:36:15;;;;;;;19.08;16.55;;;;;;;;;;143731;566;46051;-79
2022/02/02 08:38:53;;;;;;;13.38;11.88;;;;;;;;;;143731;579;46012;-78
2022/02/02 08:41:37;;;;;;;15.20;12.60;;;;;;;;;;143735;598;46020;-78
2022/02/02 08:44:11;;;;;;;23.92;18.10;;;;;;;;;;143736;602;46018;-79
2022/02/02 08:46:43;;;;;;;23.10;18.48;;;;;;;;;;143732;564;46022;-79
2022/02/02 08:49:13;;;;;;;22.90;19.05;;;;;;;;;;143729;614;46012;-79
2022/02/02 08:51:44;;;;;;;18.58;16.10;;;;;;;;;;143734;624;46020;-78
2022/02/02 09:02:31;;;;;;;21.35;17.77;;;;;;;;;;143731;581;47012;-78
2022/02/02 09:07:42;;;;;;;19.15;16.95;;;;;;;;;;143733;590;46020;-79
2022/02/02 09:10:21;;;;;;;17.45;14.77;;;;;;;;;;143732;589;46020;-78
2022/02/02 09:24:07;;;;;;;11.77;10.57;;;;;;;;;;143734;616;46020;-79
2022/02/02 09:32:29;;;;;;;14.40;9.35;;;;;;;;;;143734;582;46012;-78
2022/02/02 09:34:56;;;;;;;12.48;8.90;;;;;;;;;;143734;591;46020;-79
2022/02/02 09:37:23;;;;;;;17.92;11.90;;;;;;;;;;143734;595;46012;-79
2022/02/02 09:40:02;;;;;;;22.58;15.05;;;;;;;;;;143733;617;46023;-79
2022/02/02 09:42:33;;;;;;;16.42;10.45;;;;;;;;;;143732;619;47020;-80
2022/02/02 09:45:06;;;;;;;17.95;10.63;;;;;;;;;;143732;597;47020;-80
2022/02/02 09:47:41;;;;;;;;;;;;;;;;;;143739;981;46012;-79
2022/02/02 09:50:24;;;;;;;17.23;14.15;;;;;;;;;;143740;580;47022;-79
2022/02/02 09:52:56;;;;;;;11.57;10.38;;;;;;;;;;143731;571;46011;-78
2022/02/02 09:55:52;;;;;;;13.05;9.18;;;;;;;;;;143732;564;46021;-78
2022/02/02 10:13:27;;;;;;;3.97;2.92;;;;;;;;;;143733;598;47024;-79
2022/02/02 10:15:57;;;;;;;4.90;3.58;;;;;;;;;;143731;598;46010;-78
2022/02/02 10:18:33;;;;;;;4.18;2.58;;;;;;;;;;143736;590;46020;-79
2022/02/02 10:21:03;;;;;;;6.87;3.35;;;;;;;;;;143734;589;46010;-78
2022/02/02 10:23:33;;;;;;;4.18;3.62;;;;;;;;;;143731;572;47022;-78
2022/02/02 10:26:42;;;;;;;4.37;3.00;;;;;;;;;;143732;566;46010;-79
2022/02/02 10:29:10;;;;;;;3.80;2.80;;;;;;;;;;143733;654;46020;-77
2022/02/02 10:31:45;;;;;;;4.10;2.92;;;;;;;;;;143735;590;46010;-78
2022/02/02 10:34:16;;;;;;;4.00;3.08;;;;;;;;;;143731;592;47022;-79
2022/02/02 10:36:44;;;;;;;4.50;2.50;;;;;;;;;;143732;741;46010;-78
2022/02/02 10:39:19;;;;;;;3.42;2.47;;;;;;;;;;143735;624;46021;-77
2022/02/02 10:41:57;;;;;;;4.22;2.92;;;;;;;;;;143734;579;46023;-77
2022/02/02 10:44:34;;;;;;;5.53;3.72;;;;;;;;;;143733;582;46022;-78
2022/02/02 10:47:19;;;;;;;6.18;3.15;;;;;;;;;;143732;566;46010;-78
2022/02/02 10:49:56;;;;;;;5.32;2.30;;;;;;;;;;143733;569;46020;-77
2022/02/02 10:52:42;;;;;;;4.22;2.62;;;;;;;;;;143736;579;46029;-77
2022/02/02 11:01:49;;;;;;;10.30;4.18;;;;;;;;;;143734;579;46021;-79
2022/02/02 11:07:03;;;;;;;5.45;3.85;;;;;;;;;;143735;579;46012;-78
2022/02/02 11:09:30;;;;;;;7.45;3.58;;;;;;;;;;143732;605;46020;-80
2022/02/02 11:11:58;;;;;;;6.00;3.95;;;;;;;;;;143737;581;45032;-79
2022/02/02 11:14:55;;;;;;;5.03;3.78;;;;;;;;;;143734;592;46011;-78
2022/02/02 11:18:18;;;;;;;7.47;4.87;;;;;;;;;;143732;575;46023;-78
2022/02/02 11:20:45;;;;;;;6.97;3.22;;;;;;;;;;143734;688;46020;-77
2022/02/02 11:23:12;;;;;;;2.10;1.33;;;;;;;;;;143736;642;46021;-79
2022/02/02 11:25:54;;;;;;;3.25;2.33;;;;;;;;;;143735;578;46020;-79
2022/02/02 11:28:29;;;;;;;5.10;3.03;;;;;;;;;;143733;573;46022;-80
2022/02/02 11:31:10;;;;;;;4.95;2.90;;;;;;;;;;143733;588;46021;-80
2022/02/02 11:33:58;;;;;;;3.70;2.90;;;;;;;;;;143733;580;46012;-79
2022/02/02 11:36:40;;;;;;;4.87;3.83;;;;;;;;;;143734;565;46020;-81
2022/02/02 11:39:33;;;;;;;6.57;4.22;;;;;;;;;;143732;566;46023;-79
2022/02/02 11:42:11;;;;;;;4.03;3.00;;;;;;;;;;143732;573;46020;-79
2022/02/02 11:44:53;;;;;;;3.95;3.12;;;;;;;;;;143734;578;46020;-79
2022/02/02 11:47:40;;;;;;;6.05;3.67;;;;;;;;;;143736;709;46027;-80
2022/02/02 11:50:07;;;;;;;7.07;3.10;;;;;;;;;;143730;716;48020;-78
2022/02/02 11:53:00;;;;;;;8.82;4.35;;;;;;;;;;143734;597;46010;-78
2022/02/02 11:55:45;;;;;;;7.35;4.50;;;;;;;;;;143735;567;46020;-79
2022/02/02 11:58:26;;;;;;;4.82;3.37;;;;;;;;;;143736;585;47010;-79
2022/02/02 12:01:20;;;;;;;3.65;2.92;;;;;;;;;;143734;588;46012;-79
2022/02/02 12:07:00;;;;;;;8.00;4.12;;;;;;;;;;143734;603;46013;-79
2022/02/02 12:09:48;;;;;;;5.87;3.95;;;;;;;;;;143734;665;48010;-79
2022/02/02 12:27:47;;;;;;;6.37;4.53;;;;;;;;;;143736;570;46020;-78
2022/02/02 12:45:02;;;;;;;7.32;4.25;;;;;;;;;;143735;600;46020;-79
2022/02/02 12:58:17;;;;;;;9.30;6.28;;;;;;;;;;143734;588;46012;-79
2022/02/02 13:03:31;;;;;;;9.18;6.15;;;;;;;;;;143737;587;46022;-80
2022/02/02 13:05:57;;;;;;;7.78;6.07;;;;;;;;;;143737;588;46020;-79
2022/02/02 13:08:25;;;;;;;9.70;7.18;;;;;;;;;;143734;650;46052;-78
2022/02/02 13:10:52;;;;;;;9.50;7.07;;;;;;;;;;143730;597;46020;-78
2022/02/02 13:13:30;;;;;;;8.45;6.35;;;;;;;;;;143736;667;46022;-78
2022/02/02 13:16:22;;;;;;;7.82;5.80;;;;;;;;;;143737;592;46012;-79
2022/02/02 13:18:54;;;;;;;7.37;5.32;;;;;;;;;;143732;611;46022;-79
2022/02/02 13:21:34;;;;;;;7.93;4.55;;;;;;;;;;143731;608;46011;-78
2022/02/02 13:24:16;;;;;;;7.95;5.43;;;;;;;;;;143733;593;47020;-78
2022/02/02 13:27:01;;;;;;;9.20;5.22;;;;;;;;;;143734;625;46020;-79
2022/02/02 13:29:50;;;;;;;11.98;8.35;;;;;;;;;;143735;571;46022;-77
2022/02/02 13:32:32;;;;;;;10.20;8.27;;;;;;;;;;143737;579;45914;-78
2022/02/02 13:35:22;;;;;;;8.35;6.37;;;;;;;;;;143736;630;46020;-77
2022/02/02 13:38:20;;;;;;;9.75;6.75;;;;;;;;;;143736;643;46010;-79
2022/02/02 13:49:47;;;;;;;2.75;2.00;;;;;;;;;;143738;588;46039;-77
2022/02/02 13:52:48;;;;;;;2.87;2.47;;;;;;;;;;143734;602;47023;-79
2022/02/02 13:55:47;;;;;;;4.65;2.70;;;;;;;;;;143735;592;46010;-79
2022/02/02 13:58:35;;;;;;;3.53;2.15;;;;;;;;;;143733;584;46020;-79
2022/02/02 14:04:03;;;;;;;3.10;1.85;;;;;;;;;;143735;586;46020;-79
2022/02/02 14:09:22;;;;;;;2.30;1.77;;;;;;;;;;143735;572;46012;-80
2022/02/02 14:31:26;;;;;;;3.55;2.40;;;;;;;;;;143734;578;47029;-78
2022/02/02 14:33:57;;;;;;;4.25;2.60;;;;;;;;;;143733;567;47031;-79
2022/02/02 14:36:42;;;;;;;4.25;2.12;;;;;;;;;;143734;659;46021;-80
2022/02/02 14:39:17;;;;;;;4.72;2.67;;;;;;;;;;143733;660;46020;-79
2022/02/02 14:41:52;;;;;;;9.00;4.35;;;;;;;;;;143736;584;46020;-79
2022/02/02 14:44:28;;;;;;;7.87;4.75;;;;;;;;;;143735;578;46021;-79
2022/02/02 14:47:22;;;;;;;7.10;5.20;;;;;;;;;;143735;582;46022;-78
2022/02/02 14:50:05;;;;;;;4.93;3.30;;;;;;;;;;143734;592;47020;-78
2022/02/02 14:53:04;;;;;;;9.77;7.25;;;;;;;;;;143738;607;46021;-79
2022/02/02 14:55:57;;;;;;;8.88;6.35;;;;;;;;;;143738;585;46018;-79
2022/02/02 15:09:50;;;;;;;9.15;5.45;;;;;;;;;;143738;589;46044;-79
2022/02/02 15:24:29;;;;;;;15.60;9.80;;;;;;;;;;143737;569;46020;-79
2022/02/02 15:27:18;;;;;;;26.33;18.25;;;;;;;;;;143734;569;46022;-79
2022/02/02 15:32:53;;;;;;;;;;;;;;;;;;;;;
2022/02/02 15:35:22;;;;;;;16.07;10.53;;;;;;;;;;143733;581;46914;-80
2022/02/02 15:37:58;;;;;;;8.85;6.30;;;;;;;;;;143734;615;46021;-80
2022/02/02 15:40:28;;;;;;;11.05;7.47;;;;;;;;;;143738;598;46018;-79
2022/02/02 15:43:24;;;;;;;12.57;8.65;;;;;;;;;;143734;585;46022;-79
2022/02/02 16:03:02;;;;;;;14.55;7.40;;;;;;;;;;143735;642;47020;-78
2022/02/02 16:05:33;;;;;;;13.43;8.38;;;;;;;;;;143736;564;46024;-80
2022/02/02 16:08:05;;;;;;;10.00;7.50;;;;;;;;;;143734;595;46010;-80
2022/02/02 16:13:42;;;;;;;11.12;8.50;;;;;;;;;;143736;590;46019;-80
2022/02/02 16:19:02;;;;;;;11.98;9.30;;;;;;;;;;143734;584;46020;-80
2022/02/02 16:33:14;;;;;;;14.80;10.57;;;;;;;;;;143733;573;48020;-79
2022/02/02 16:38:25;;;;;;;10.23;6.68;;;;;;;;;;143738;595;45042;-79
2022/02/02 16:40:52;;;;;;;10.30;7.80;;;;;;;;;;143733;581;46020;-79
2022/02/02 16:43:23;;;;;;;10.13;7.50;;;;;;;;;;143736;564;47012;-79
2022/02/02 16:46:03;;;;;;;12.85;9.93;;;;;;;;;;143736;659;47018;-79
2022/02/02 16:48:36;;;;;;;10.05;6.82;;;;;;;;;;143735;591;46022;-79
2022/02/02 16:51:05;;;;;;;9.07;6.93;;;;;;;;;;143733;590;46914;-80
2022/02/02 16:53:45;;;;;;;8.52;6.35;;;;;;;;;;143734;642;46020;-80
2022/02/02 17:30:21;;;;;;;;;;;;;;;;;;;;;
2022/02/02 17:36:06;;;;;;;23.58;16.00;;;;;;;;;;143734;602;46021;-79
2022/02/02 17:41:56;;;;;;;22.25;16.37;;;;;;;;;;143740;574;45048;-80
2022/02/02 17:44:51;;;;;;;22.62;16.77;;;;;;;;;;143735;612;46025;-81
2022/02/02 18:18:57;;;;;;;20.35;15.48;;;;;;;;;;143731;573;47024;-80
2022/02/02 18:21:26;;;;;;;18.50;15.85;;;;;;;;;;143733;604;46012;-79
2022/02/02 18:24:06;;;;;;;21.73;15.07;;;;;;;;;;143735;587;46014;-80
2022/02/02 18:29:49;;;;;;;22.42;18.27;;;;;;;;;;143738;615;45029;-79
2022/02/02 18:34:59;;;;;;;22.55;17.48;;;;;;;;;;143735;585;46020;-78
2022/02/02 18:49:13;;;;;;;22.30;18.45;;;;;;;;;;143736;570;46019;-79
2022/02/02 18:57:33;;;;;;;24.23;18.08;;;;;;;;;;143733;643;46015;-79
2022/02/02 19:00:15;;;;;;;21.60;16.15;;;;;;;;;;143735;659;46018;-78
2022/02/02 19:56:10;;;;;;;20.48;15.18;;;;;;;;;;143735;608;46020;-80
2022/02/02 20:07:09;;;;;;;22.05;14.98;;;;;;;;;;143738;607;46018;-79
2022/02/02 20:12:26;;;;;;;20.90;12.82;;;;;;;;;;143733;595;46012;-78
2022/02/02 20:14:53;;;;;;;18.83;15.00;;;;;;;;;;143733;578;46020;-79
2022/02/02 20:17:23;;;;;;;19.42;14.00;;;;;;;;;;143734;606;46012;-79
2022/02/02 20:19:56;;;;;;;18.12;14.13;;;;;;;;;;143733;593;46023;-79
2022/02/02 20:22:29;;;;;;;18.83;13.00;;;;;;;;;;143732;586;46012;-80
2022/02/02 20:25:01;;;;;;;23.20;15.15;;;;;;;;;;143735;569;46020;-79
2022/02/02 20:27:31;;;;;;;20.55;13.45;;;;;;;;;;143736;660;46012;-80
2022/02/02 20:29:58;;;;;;;18.17;13.10;;;;;;;;;;143731;613;47022;-78
2022/02/02 20:32:25;;;;;;;24.48;16.80;;;;;;;;;;143732;585;47012;-79
2022/02/02 20:34:52;;;;;;;22.45;16.12;;;;;;;;;;143735;589;46021;-80
2022/02/02 20:37:20;;;;;;;17.33;12.13;;;;;;;;;;143734;578;46020;-80
2022/02/02 20:39:58;;;;;;;23.05;15.30;;;;;;;;;;143732;585;47022;-80
2022/02/02 20:42:35;;;;;;;21.77;14.02;;;;;;;;;;143731;605;46013;-80
2022/02/02 20:45:56;;;;;;;16.80;11.52;;;;;;;;;;143734;679;46020;-79
2022/02/02 21:05:25;;;;;;;16.50;10.65;;;;;;;;;;143731;593;46021;-80
2022/02/02 21:08:18;;;;;;;9.85;7.07;;;;;;;;;;143732;591;46014;-81
2022/02/02 21:10:40;;;;;;;14.48;8.52;;;;;;;;;;143735;570;46013;-81
2022/02/02 21:15:57;;;;;;;13.18;9.57;;;;;;;;;;143735;585;46020;-81
2022/02/02 21:18:31;;;;;;;14.43;8.27;;;;;;;;;;143734;704;46014;-81
2022/02/02 21:29:47;;;;;;;12.02;8.63;;;;;;;;;;143734;619;46020;-80
2022/02/02 21:32:13;;;;;;;16.27;10.27;;;;;;;;;;143733;566;47020;-81
2022/02/02 21:34:40;;;;;;;11.12;8.32;;;;;;;;;;143732;599;47023;-80
2022/02/02 21:37:07;;;;;;;13.00;8.20;;;;;;;;;;143732;582;46012;-81
2022/02/02 21:39:40;;;;;;;15.48;9.45;;;;;;;;;;143735;573;46014;-81
2022/02/02 21:42:13;;;;;;;9.32;7.00;;;;;;;;;;143735;587;46012;-81
2022/02/02 21:44:41;;;;;;;13.00;9.02;;;;;;;;;;143733;572;46022;-80
2022/02/02 21:47:11;;;;;;;15.30;10.90;;;;;;;;;;143731;587;46012;-81
2022/02/02 21:49:39;;;;;;;15.68;12.23;;;;;;;;;;143734;566;46021;-79
2022/02/02 21:52:10;;;;;;;13.80;9.43;;;;;;;;;;143735;635;46037;-80
2022/02/02 21:54:39;;;;;;;14.57;11.82;;;;;;;;;;143732;581;46022;-80
2022/02/02 21:57:06;;;;;;;16.62;12.45;;;;;;;;;;143733;610;46914;-81
2022/02/02 21:59:33;;;;;;;11.25;10.05;;;;;;;;;;143736;638;46020;-81
2022/02/02 22:02:04;;;;;;;14.25;10.00;;;;;;;;;;143733;564;46013;-80
2022/02/02 22:04:39;;;;;;;13.13;9.98;;;;;;;;;;143732;567;46022;-80
2022/02/02 22:07:09;;;;;;;12.05;9.93;;;;;;;;;;143732;649;46012;-80
2022/02/02 22:09:36;;;;;;;12.23;10.13;;;;;;;;;;143735;608;46020;-80
2022/02/02 22:12:03;;;;;;;15.65;11.00;;;;;;;;;;143736;592;46012;-80
2022/02/02 22:14:32;;;;;;;16.75;12.48;;;;;;;;;;143731;579;47022;-81
2022/02/02 22:17:02;;;;;;;16.37;12.05;;;;;;;;;;143731;623;46012;-80
2022/02/02 22:19:30;;;;;;;20.58;13.55;;;;;;;;;;143735;603;46020;-81
2022/02/02 22:21:56;;;;;;;15.23;9.95;;;;;;;;;;143733;651;46020;-81
2022/02/02 22:24:23;;;;;;;13.30;8.75;;;;;;;;;;143733;615;46022;-81
2022/02/02 22:26:50;;;;;;;15.32;10.80;;;;;;;;;;143733;605;46012;-81
2022/02/02 22:29:17;;;;;;;15.20;11.55;;;;;;;;;;143733;616;47020;-81
2022/02/02 22:31:43;;;;;;;15.77;11.50;;;;;;;;;;143736;574;46043;-82
2022/02/02 22:34:15;;;;;;;12.68;9.10;;;;;;;;;;143734;599;46023;-81
2022/02/02 22:36:42;;;;;;;15.90;11.25;;;;;;;;;;143731;610;46012;-80
2022/02/02 22:39:10;;;;;;;17.67;10.50;;;;;;;;;;143731;570;46020;-81
2022/02/02 22:41:45;;;;;;;17.77;9.43;;;;;;;;;;143735;605;46013;-81
2022/02/02 22:44:14;;;;;;;13.80;8.43;;;;;;;;;;143734;585;46022;-81
2022/02/02 22:46:41;;;;;;;11.05;7.78;;;;;;;;;;143732;575;46914;-81
2022/02/02 22:49:08;;;;;;;17.60;11.10;;;;;;;;;;143733;589;46049;-81
2022/02/02 22:51:35;;;;;;;18.27;8.68;;;;;;;;;;143734;592;46036;-82
2022/02/02 22:54:06;;;;;;;14.70;8.55;;;;;;;;;;143733;586;46020;-82
2022/02/02 22:56:33;;;;;;;15.68;9.63;;;;;;;;;;143731;591;46013;-80
2022/02/02 22:59:00;;;;;;;20.00;11.65;;;;;;;;;;143730;624;47020;-80
2022/02/02 23:01:28;;;;;;;18.20;13.13;;;;;;;;;;143734;597;46013;-82
2022/02/02 23:03:56;;;;;;;14.87;10.05;;;;;;;;;;143731;597;46023;-82
2022/02/02 23:06:22;;;;;;;17.40;10.38;;;;;;;;;;143731;569;46012;-83
2022/02/02 23:08:50;;;;;;;19.77;12.82;;;;;;;;;;143733;597;46020;-82
2022/02/02 23:11:19;;;;;;;19.40;13.30;;;;;;;;;;143736;569;46012;-81
2022/02/02 23:13:49;;;;;;;11.60;8.43;;;;;;;;;;143730;657;47022;-81
2022/02/02 23:16:35;;;;;;;15.02;8.63;;;;;;;;;;143732;588;46012;-82
2022/02/02 23:19:03;;;;;;;11.73;9.02;;;;;;;;;;143735;717;46021;-80
2022/02/02 23:21:31;;;;;;;13.23;8.80;;;;;;;;;;143734;569;46018;-81
2022/02/02 23:24:02;;;;;;;14.80;10.40;;;;;;;;;;143735;567;47022;-82
2022/02/02 23:26:32;;;;;;;12.73;8.98;;;;;;;;;;143733;574;46012;-82
2022/02/02 23:29:01;;;;;;;8.82;6.22;;;;;;;;;;143734;589;45020;-82
2022/02/02 23:31:29;;;;;;;11.27;7.62;;;;;;;;;;143735;600;46013;-81
2022/02/02 23:34:11;;;;;;;8.88;7.85;;;;;;;;;;143733;573;46023;-82
2022/02/02 23:36:38;;;;;;;8.57;6.22;;;;;;;;;;143732;584;46914;-82
2022/02/02 23:39:06;;;;;;;12.20;9.90;;;;;;;;;;143733;576;46020;-81
2022/02/02 23:44:31;;;;;;;12.45;8.55;;;;;;;;;;143733;600;46014;-82
2022/02/02 23:46:59;;;;;;;16.65;11.85;;;;;;;;;;143731;570;46012;-80
2022/02/02 23:49:36;;;;;;;22.05;10.57;;;;;;;;;;143732;572;47021;-81
2022/02/02 23:52:04;;;;;;;14.68;10.60;;;;;;;;;;143734;612;45020;-82
2022/02/02 23:54:34;;;;;;;20.27;9.88;;;;;;;;;;143733;571;46020;-81
2022/02/02 23:57:14;;;;;;;13.30;9.90;;;;;;;;;;143731;633;46021;-80
2022/02/02 23:59:59;;;;;;;13.60;9.43;;;;;;;;;;143733;660;46020;-81
